Time;durP1;ratioP1;P1;durP2;ratioP2;P2;SDS_P1;SDS_P2;PMS_P1;PMS_P2;Temp;Humidity;BMP_temperature;BMP_pressure;BME280_temperature;BME280_humidity;BME280_pressure;Samples;Min_cycle;Max_cycle;Signal;HPM_P1;HPM_P2
2022/09/29 00:01:31;;;;;;;15.10;9.43;;;;;;;;;;4977259;28;20176;-41
2022/09/29 00:03:57;;;;;;;15.80;10.30;;;;;;;;;;4973616;28;20642;-42
2022/09/29 00:06:23;;;;;;;18.93;11.90;;;;;;;;;;4974557;28;20786;-42
2022/09/29 00:08:49;;;;;;;17.57;11.40;;;;;;;;;;4981858;28;20987;-43
2022/09/29 00:11:17;;;;;;;16.90;10.67;;;;;;;;;;4981048;28;20732;-41
2022/09/29 00:13:43;;;;;;;19.97;12.40;;;;;;;;;;4981423;28;20376;-42
2022/09/29 00:16:10;;;;;;;20.77;12.37;;;;;;;;;;4985723;28;20420;-41
2022/09/29 00:18:36;;;;;;;22.60;13.23;;;;;;;;;;4984926;28;20181;-42
2022/09/29 00:21:04;;;;;;;19.30;12.67;;;;;;;;;;4981879;28;20772;-41
2022/09/29 00:23:31;;;;;;;21.67;13.93;;;;;;;;;;4981983;28;20180;-41
2022/09/29 00:26:11;;;;;;;15.87;12.43;;;;;;;;;;4980487;28;20190;-41
2022/09/29 00:28:38;;;;;;;19.30;13.70;;;;;;;;;;4983057;28;20204;-42
2022/09/29 00:31:05;;;;;;;19.47;13.37;;;;;;;;;;4984869;28;21136;-42
2022/09/29 00:33:31;;;;;;;16.77;12.00;;;;;;;;;;4982583;28;20192;-42
2022/09/29 00:36:05;;;;;;;21.07;13.23;;;;;;;;;;4979257;28;20184;-42
2022/09/29 00:38:31;;;;;;;17.63;12.73;;;;;;;;;;4982205;28;20356;-43
2022/09/29 00:40:58;;;;;;;21.00;13.93;;;;;;;;;;4985296;28;20262;-42
2022/09/29 00:43:43;;;;;;;18.00;12.37;;;;;;;;;;4986210;28;20176;-43
2022/09/29 00:46:09;;;;;;;17.80;12.07;;;;;;;;;;4984214;28;20247;-41
2022/09/29 00:48:36;;;;;;;18.63;13.23;;;;;;;;;;5013019;28;20173;-44
2022/09/29 00:51:02;;;;;;;17.23;11.97;;;;;;;;;;4980539;28;20384;-44
2022/09/29 00:53:28;;;;;;;24.67;15.43;;;;;;;;;;4986975;28;20177;-43
2022/09/29 00:56:09;;;;;;;22.77;14.87;;;;;;;;;;4986762;28;20268;-42
2022/09/29 00:58:38;;;;;;;19.57;14.57;;;;;;;;;;4981899;28;20743;-42
2022/09/29 01:01:05;;;;;;;23.67;14.60;;;;;;;;;;4979451;28;20712;-43
2022/09/29 01:03:33;;;;;;;18.17;12.43;;;;;;;;;;4981648;28;20473;-43
2022/09/29 01:06:01;;;;;;;21.07;14.73;;;;;;;;;;4983878;28;20620;-43
2022/09/29 01:08:38;;;;;;;24.90;15.80;;;;;;;;;;4983126;28;21569;-43
2022/09/29 01:11:05;;;;;;;21.87;15.00;;;;;;;;;;4982463;28;20215;-43
2022/09/29 01:13:31;;;;;;;20.07;14.37;;;;;;;;;;4982717;28;20628;-43
2022/09/29 01:15:57;;;;;;;20.43;14.87;;;;;;;;;;4984103;28;20270;-43
2022/09/29 01:18:24;;;;;;;19.07;15.00;;;;;;;;;;4981878;28;21120;-43
2022/09/29 01:21:24;;;;;;;22.63;13.90;;;;;;;;;;4983858;28;20537;-42
2022/09/29 01:24:08;;;;;;;22.30;14.60;;;;;;;;;;4977529;28;20228;-43
2022/09/29 01:26:38;;;;;;;22.37;14.67;;;;;;;;;;4983060;28;20477;-43
2022/09/29 01:29:17;;;;;;;21.83;14.53;;;;;;;;;;4979275;28;20440;-43
2022/09/29 01:32:01;;;;;;;20.03;14.67;;;;;;;;;;4977312;28;20180;-43
2022/09/29 01:34:27;;;;;;;21.63;15.10;;;;;;;;;;4983204;28;20184;-43
2022/09/29 01:36:53;;;;;;;28.17;16.63;;;;;;;;;;4985982;28;20687;-42
2022/09/29 01:39:24;;;;;;;20.03;15.00;;;;;;;;;;4985351;28;20180;-44
2022/09/29 01:41:53;;;;;;;19.73;16.30;;;;;;;;;;4981570;28;20667;-43
2022/09/29 01:44:38;;;;;;;23.57;15.43;;;;;;;;;;4980753;28;20405;-43
2022/09/29 01:47:06;;;;;;;20.23;14.87;;;;;;;;;;4985262;28;20181;-42
2022/09/29 01:49:35;;;;;;;25.20;16.70;;;;;;;;;;4983656;28;20318;-42
2022/09/29 01:52:05;;;;;;;23.33;16.47;;;;;;;;;;4979803;28;20315;-45
2022/09/29 01:54:46;;;;;;;22.50;15.80;;;;;;;;;;4981769;28;20181;-43
2022/09/29 01:57:33;;;;;;;21.00;15.53;;;;;;;;;;4984686;28;20663;-42
2022/09/29 02:00:03;;;;;;;22.43;16.80;;;;;;;;;;4985986;28;20177;-43
2022/09/29 02:02:37;;;;;;;24.63;17.93;;;;;;;;;;4982308;28;20764;-43
2022/09/29 02:05:04;;;;;;;22.40;16.67;;;;;;;;;;4983926;28;20173;-43
2022/09/29 02:07:36;;;;;;;21.80;16.87;;;;;;;;;;4984622;28;20651;-43
2022/09/29 02:10:05;;;;;;;20.43;15.93;;;;;;;;;;4985028;28;20708;-43
2022/09/29 02:12:34;;;;;;;19.67;15.77;;;;;;;;;;4985113;28;20212;-43
2022/09/29 02:15:02;;;;;;;22.03;15.87;;;;;;;;;;4981025;28;20184;-43
2022/09/29 02:17:33;;;;;;;22.47;17.27;;;;;;;;;;4984359;28;21624;-43
2022/09/29 02:19:59;;;;;;;28.10;20.00;;;;;;;;;;4982677;28;20186;-43
2022/09/29 02:22:25;;;;;;;23.27;16.43;;;;;;;;;;4984374;28;20180;-42
2022/09/29 02:24:52;;;;;;;25.67;18.57;;;;;;;;;;4982617;28;20745;-43
2022/09/29 02:27:18;;;;;;;28.60;19.37;;;;;;;;;;4981892;28;20629;-43
2022/09/29 02:29:45;;;;;;;25.27;19.00;;;;;;;;;;4984369;28;20295;-43
2022/09/29 02:32:11;;;;;;;26.27;16.97;;;;;;;;;;4984068;28;21046;-43
2022/09/29 02:34:41;;;;;;;22.67;16.00;;;;;;;;;;4988548;28;20206;-43
2022/09/29 02:37:22;;;;;;;20.10;15.13;;;;;;;;;;4985428;28;20705;-41
2022/09/29 02:39:57;;;;;;;30.40;19.17;;;;;;;;;;4984663;28;20384;-43
2022/09/29 02:42:23;;;;;;;22.03;15.20;;;;;;;;;;4986267;28;20724;-43
2022/09/29 02:45:08;;;;;;;22.77;15.53;;;;;;;;;;4985416;28;20844;-45
2022/09/29 02:47:54;;;;;;;23.53;16.43;;;;;;;;;;4983103;28;20660;-43
2022/09/29 02:50:33;;;;;;;22.57;16.97;;;;;;;;;;4985927;28;20769;-42
2022/09/29 02:53:02;;;;;;;24.90;16.77;;;;;;;;;;4987181;28;20430;-43
2022/09/29 02:55:31;;;;;;;22.20;16.03;;;;;;;;;;4987345;28;20181;-43
2022/09/29 02:58:10;;;;;;;31.53;18.73;;;;;;;;;;4985303;28;20200;-43
2022/09/29 03:00:37;;;;;;;26.47;15.37;;;;;;;;;;4984627;28;20299;-42
2022/09/29 03:03:03;;;;;;;29.17;18.27;;;;;;;;;;4989835;28;20177;-41
2022/09/29 03:05:30;;;;;;;29.03;19.33;;;;;;;;;;4986924;28;20280;-41
2022/09/29 03:07:56;;;;;;;27.27;19.10;;;;;;;;;;4989939;28;20455;-42
2022/09/29 03:10:22;;;;;;;21.77;16.07;;;;;;;;;;4984483;28;20205;-43
2022/09/29 03:12:48;;;;;;;24.07;16.70;;;;;;;;;;4987431;28;20169;-43
2022/09/29 03:15:14;;;;;;;27.93;19.60;;;;;;;;;;4991512;28;20756;-43
2022/09/29 03:17:41;;;;;;;28.03;19.17;;;;;;;;;;4987814;28;20477;-43
2022/09/29 03:20:07;;;;;;;26.47;19.20;;;;;;;;;;4981913;28;20180;-43
2022/09/29 03:22:34;;;;;;;23.90;17.17;;;;;;;;;;4987559;28;20192;-42
2022/09/29 03:25:00;;;;;;;24.23;16.67;;;;;;;;;;4986071;28;20172;-42
2022/09/29 03:27:26;;;;;;;25.10;16.83;;;;;;;;;;4987214;28;20266;-44
2022/09/29 03:29:52;;;;;;;26.10;19.30;;;;;;;;;;4983145;28;20169;-43
2022/09/29 03:32:18;;;;;;;25.67;18.83;;;;;;;;;;4986762;28;20853;-43
2022/09/29 03:34:44;;;;;;;37.03;22.60;;;;;;;;;;4988985;28;20487;-43
2022/09/29 03:37:10;;;;;;;30.40;21.93;;;;;;;;;;4984754;28;20359;-43
2022/09/29 03:39:37;;;;;;;24.60;18.50;;;;;;;;;;4984453;28;20223;-43
2022/09/29 03:42:03;;;;;;;32.70;20.67;;;;;;;;;;4983418;28;20184;-43
2022/09/29 03:44:29;;;;;;;25.83;19.20;;;;;;;;;;4987043;28;20173;-43
2022/09/29 03:46:55;;;;;;;26.63;18.70;;;;;;;;;;4986427;28;20185;-43
2022/09/29 03:49:21;;;;;;;32.43;22.03;;;;;;;;;;4987390;28;20677;-43
2022/09/29 03:51:47;;;;;;;30.00;19.07;;;;;;;;;;4984170;28;20174;-43
2022/09/29 03:54:13;;;;;;;26.83;18.20;;;;;;;;;;4984996;28;20280;-43
2022/09/29 03:56:39;;;;;;;31.87;22.10;;;;;;;;;;4984901;28;20368;-43
2022/09/29 03:59:08;;;;;;;38.63;24.90;;;;;;;;;;4985650;28;20208;-43
2022/09/29 04:01:34;;;;;;;33.97;22.33;;;;;;;;;;4986057;28;20177;-42
2022/09/29 04:04:00;;;;;;;27.57;19.93;;;;;;;;;;4982877;28;20172;-43
2022/09/29 04:06:26;;;;;;;33.90;23.50;;;;;;;;;;4978387;28;20179;-42
2022/09/29 04:08:53;;;;;;;26.08;20.60;;;;;;;;;;4988330;28;20957;-41
2022/09/29 04:11:19;;;;;;;28.80;20.50;;;;;;;;;;4985650;28;20244;-43
2022/09/29 04:13:45;;;;;;;33.40;21.67;;;;;;;;;;4983131;28;21758;-42
2022/09/29 04:16:11;;;;;;;24.67;19.13;;;;;;;;;;4979515;28;20582;-43
2022/09/29 04:18:37;;;;;;;27.60;20.60;;;;;;;;;;4982838;28;20520;-43
2022/09/29 04:21:07;;;;;;;29.93;20.67;;;;;;;;;;4983925;28;20649;-42
2022/09/29 04:23:33;;;;;;;38.87;24.70;;;;;;;;;;4982476;28;20182;-40
2022/09/29 04:26:02;;;;;;;25.93;18.17;;;;;;;;;;4984395;28;20177;-41
2022/09/29 04:28:31;;;;;;;39.70;23.53;;;;;;;;;;4981181;28;20224;-42
2022/09/29 04:30:57;;;;;;;29.13;19.87;;;;;;;;;;4980573;28;20704;-42
2022/09/29 04:33:23;;;;;;;37.80;23.23;;;;;;;;;;4980630;28;20439;-42
2022/09/29 04:35:49;;;;;;;29.57;19.67;;;;;;;;;;4984798;28;20641;-42
2022/09/29 04:38:15;;;;;;;29.63;18.63;;;;;;;;;;4985522;28;20489;-41
2022/09/29 04:40:41;;;;;;;28.97;21.33;;;;;;;;;;4980765;28;20208;-43
2022/09/29 04:43:08;;;;;;;31.13;21.83;;;;;;;;;;4985889;28;20589;-43
2022/09/29 04:45:34;;;;;;;29.60;21.20;;;;;;;;;;4989759;28;20212;-42
2022/09/29 04:48:00;;;;;;;30.87;21.00;;;;;;;;;;4986387;28;20705;-42
2022/09/29 04:50:26;;;;;;;28.47;20.33;;;;;;;;;;4983418;28;20172;-42
2022/09/29 04:52:52;;;;;;;30.93;22.00;;;;;;;;;;4981042;28;20329;-42
2022/09/29 04:55:18;;;;;;;28.83;21.77;;;;;;;;;;4983439;28;20361;-43
2022/09/29 04:57:45;;;;;;;35.57;24.63;;;;;;;;;;4983761;28;20736;-43
2022/09/29 05:00:12;;;;;;;28.07;20.27;;;;;;;;;;4985247;28;20543;-43
2022/09/29 05:02:38;;;;;;;32.57;23.97;;;;;;;;;;4990023;28;20207;-42
2022/09/29 05:05:07;;;;;;;26.77;20.70;;;;;;;;;;4989238;28;20709;-42
2022/09/29 05:07:37;;;;;;;33.13;23.77;;;;;;;;;;4991551;28;20211;-42
2022/09/29 05:10:04;;;;;;;28.57;20.73;;;;;;;;;;4990718;28;20963;-42
2022/09/29 05:12:30;;;;;;;31.03;20.80;;;;;;;;;;4984141;28;20173;-43
2022/09/29 05:14:56;;;;;;;33.47;21.90;;;;;;;;;;4985536;28;20264;-42
2022/09/29 05:17:22;;;;;;;29.93;22.53;;;;;;;;;;4987451;28;20277;-43
2022/09/29 05:19:48;;;;;;;28.07;20.83;;;;;;;;;;4988468;28;20196;-43
2022/09/29 05:22:14;;;;;;;33.17;23.93;;;;;;;;;;4987832;28;20657;-43
2022/09/29 05:24:40;;;;;;;27.00;21.37;;;;;;;;;;4981728;28;20173;-43
2022/09/29 05:27:06;;;;;;;30.93;22.70;;;;;;;;;;4983956;28;20290;-42
2022/09/29 05:29:32;;;;;;;31.63;23.77;;;;;;;;;;4986799;28;20274;-41
2022/09/29 05:31:58;;;;;;;28.77;20.97;;;;;;;;;;4982354;28;20190;-42
2022/09/29 05:34:25;;;;;;;33.43;24.60;;;;;;;;;;4988838;28;20173;-43
2022/09/29 05:36:51;;;;;;;41.30;25.77;;;;;;;;;;4989189;28;20625;-42
2022/09/29 05:39:19;;;;;;;30.33;22.93;;;;;;;;;;4984753;28;20648;-43
2022/09/29 05:41:45;;;;;;;38.10;24.93;;;;;;;;;;4988573;28;20173;-42
2022/09/29 05:44:11;;;;;;;34.03;24.57;;;;;;;;;;4987135;28;20616;-43
2022/09/29 05:46:38;;;;;;;30.47;22.33;;;;;;;;;;4982096;28;20180;-43
2022/09/29 05:49:04;;;;;;;34.90;26.17;;;;;;;;;;4983513;28;20207;-42
2022/09/29 05:51:30;;;;;;;34.60;25.60;;;;;;;;;;4976033;28;20913;-43
2022/09/29 05:53:56;;;;;;;30.87;22.73;;;;;;;;;;4980806;28;20173;-42
2022/09/29 05:56:26;;;;;;;40.50;25.73;;;;;;;;;;4984054;28;20654;-43
2022/09/29 05:58:52;;;;;;;32.20;23.67;;;;;;;;;;4983823;28;20204;-41
2022/09/29 06:01:23;;;;;;;35.97;24.73;;;;;;;;;;4980229;28;20181;-42
2022/09/29 06:03:50;;;;;;;38.53;26.93;;;;;;;;;;4975181;28;20204;-41
2022/09/29 06:06:18;;;;;;;30.83;23.30;;;;;;;;;;4980400;28;20203;-41
2022/09/29 06:08:45;;;;;;;36.10;24.93;;;;;;;;;;4986904;28;20725;-42
2022/09/29 06:11:12;;;;;;;33.90;25.17;;;;;;;;;;4984109;28;20204;-42
2022/09/29 06:13:42;;;;;;;33.80;24.00;;;;;;;;;;4980060;28;20603;-42
2022/09/29 06:16:09;;;;;;;37.47;24.93;;;;;;;;;;4979309;28;20279;-42
2022/09/29 06:18:35;;;;;;;36.40;27.07;;;;;;;;;;4974905;28;20243;-42
2022/09/29 06:21:02;;;;;;;31.60;24.47;;;;;;;;;;4982207;28;20759;-45
2022/09/29 06:23:28;;;;;;;36.80;26.53;;;;;;;;;;4985077;28;20184;-45
2022/09/29 06:25:55;;;;;;;29.37;22.37;;;;;;;;;;4989156;28;20180;-44
2022/09/29 06:28:21;;;;;;;34.03;25.93;;;;;;;;;;4979588;28;20322;-44
2022/09/29 06:30:47;;;;;;;36.23;25.67;;;;;;;;;;4984209;28;20294;-42
2022/09/29 06:33:14;;;;;;;33.67;24.33;;;;;;;;;;4986718;28;20339;-42
2022/09/29 06:38:30;;;;;;;32.87;24.40;;;;;;;;;;4982537;28;20275;-44
2022/09/29 06:40:56;;;;;;;31.67;23.63;;;;;;;;;;4986158;28;20177;-45
2022/09/29 06:43:22;;;;;;;30.33;23.20;;;;;;;;;;4984737;28;21056;-45
2022/09/29 06:45:48;;;;;;;39.93;25.70;;;;;;;;;;4986194;28;20196;-42
2022/09/29 06:48:14;;;;;;;33.80;25.00;;;;;;;;;;4983464;28;20180;-43
2022/09/29 06:50:40;;;;;;;37.50;26.17;;;;;;;;;;4981205;28;20291;-41
2022/09/29 06:53:07;;;;;;;34.70;26.13;;;;;;;;;;4981910;28;20189;-43
2022/09/29 06:55:33;;;;;;;37.10;24.97;;;;;;;;;;4987885;28;20628;-42
2022/09/29 06:57:59;;;;;;;32.43;24.67;;;;;;;;;;4983477;28;20203;-44
2022/09/29 07:00:25;;;;;;;30.87;23.47;;;;;;;;;;4985662;28;20176;-43
2022/09/29 07:02:52;;;;;;;33.40;24.80;;;;;;;;;;4982341;28;20609;-43
2022/09/29 07:05:18;;;;;;;33.97;25.50;;;;;;;;;;4983562;28;20199;-42
2022/09/29 07:07:44;;;;;;;38.33;26.20;;;;;;;;;;4984289;28;20503;-44
2022/09/29 07:10:10;;;;;;;37.40;26.47;;;;;;;;;;4984852;28;20960;-43
2022/09/29 07:12:36;;;;;;;33.77;24.07;;;;;;;;;;4982170;28;20526;-44
2022/09/29 07:15:02;;;;;;;34.17;23.20;;;;;;;;;;4984361;28;20176;-41
2022/09/29 07:17:28;;;;;;;29.63;23.90;;;;;;;;;;4987291;28;20212;-43
2022/09/29 07:19:55;;;;;;;30.90;23.37;;;;;;;;;;4986904;28;20507;-43
2022/09/29 07:22:22;;;;;;;31.70;25.53;;;;;;;;;;4988377;28;20768;-42
2022/09/29 07:24:49;;;;;;;33.47;23.17;;;;;;;;;;4981535;28;20169;-42
2022/09/29 07:27:20;;;;;;;31.20;23.07;;;;;;;;;;4984046;28;20808;-42
2022/09/29 07:29:46;;;;;;;32.90;25.77;;;;;;;;;;4984805;28;20224;-42
2022/09/29 07:32:12;;;;;;;34.37;26.50;;;;;;;;;;4982043;28;20200;-42
2022/09/29 07:34:38;;;;;;;36.40;26.63;;;;;;;;;;4985939;28;21346;-42
2022/09/29 07:37:04;;;;;;;35.87;26.37;;;;;;;;;;4988925;28;20679;-45
2022/09/29 07:39:30;;;;;;;35.80;27.17;;;;;;;;;;4985524;28;20308;-43
2022/09/29 07:41:57;;;;;;;33.33;27.37;;;;;;;;;;4990072;28;20986;-43
2022/09/29 07:44:23;;;;;;;33.77;25.73;;;;;;;;;;4988016;28;20183;-42
2022/09/29 07:46:49;;;;;;;33.83;26.27;;;;;;;;;;4991269;28;20172;-42
2022/09/29 07:49:15;;;;;;;32.77;25.33;;;;;;;;;;4984963;28;21381;-42
2022/09/29 07:51:41;;;;;;;34.93;26.13;;;;;;;;;;4980799;28;20165;-43
2022/09/29 07:54:08;;;;;;;32.90;24.33;;;;;;;;;;4982436;28;20165;-42
2022/09/29 07:56:34;;;;;;;37.67;25.27;;;;;;;;;;4982929;28;20181;-43
2022/09/29 07:59:02;;;;;;;37.63;24.70;;;;;;;;;;4984369;28;20521;-43
2022/09/29 08:01:28;;;;;;;34.97;25.00;;;;;;;;;;4987959;28;20656;-43
2022/09/29 08:03:55;;;;;;;32.37;25.00;;;;;;;;;;4986474;28;20177;-43
2022/09/29 08:06:21;;;;;;;34.47;24.87;;;;;;;;;;4986306;28;20787;-43
2022/09/29 08:08:48;;;;;;;33.17;24.40;;;;;;;;;;4984595;28;20181;-42
2022/09/29 08:11:15;;;;;;;36.70;26.00;;;;;;;;;;4987468;28;20910;-42
2022/09/29 08:13:41;;;;;;;33.63;25.03;;;;;;;;;;4985583;28;20274;-42
2022/09/29 08:16:10;;;;;;;33.77;23.80;;;;;;;;;;4984378;28;20173;-42
2022/09/29 08:18:36;;;;;;;35.77;22.97;;;;;;;;;;4986025;28;20307;-42
2022/09/29 08:21:03;;;;;;;26.93;22.40;;;;;;;;;;4981610;28;20302;-42
2022/09/29 08:23:30;;;;;;;33.80;23.00;;;;;;;;;;4985788;28;20180;-42
2022/09/29 08:26:07;;;;;;;27.40;21.83;;;;;;;;;;4988638;28;20381;-41
2022/09/29 08:28:33;;;;;;;32.57;24.17;;;;;;;;;;4985366;28;20831;-42
2022/09/29 08:31:07;;;;;;;37.13;25.73;;;;;;;;;;4983666;28;20185;-42
2022/09/29 08:33:33;;;;;;;35.70;25.37;;;;;;;;;;4982948;28;20935;-41
2022/09/29 08:36:02;;;;;;;30.70;24.13;;;;;;;;;;4989162;28;20181;-42
2022/09/29 08:38:28;;;;;;;31.43;23.00;;;;;;;;;;4990551;28;20332;-42
2022/09/29 08:40:56;;;;;;;30.10;22.50;;;;;;;;;;4990874;28;20173;-44
2022/09/29 08:43:25;;;;;;;28.13;21.93;;;;;;;;;;4986991;28;20176;-41
2022/09/29 08:46:00;;;;;;;28.20;22.23;;;;;;;;;;4989710;28;20299;-43
2022/09/29 08:48:29;;;;;;;32.43;21.60;;;;;;;;;;4989430;28;20403;-42
2022/09/29 08:50:57;;;;;;;30.10;21.73;;;;;;;;;;5018411;28;20380;-43
2022/09/29 08:53:24;;;;;;;30.77;23.23;;;;;;;;;;4988700;28;20229;-42
2022/09/29 08:55:56;;;;;;;29.53;20.80;;;;;;;;;;4984963;28;20843;-42
2022/09/29 08:58:22;;;;;;;31.83;23.33;;;;;;;;;;4985844;28;20775;-42
2022/09/29 09:00:48;;;;;;;31.03;23.77;;;;;;;;;;4986619;28;20466;-42
2022/09/29 09:03:26;;;;;;;29.73;21.57;;;;;;;;;;4989257;28;20505;-43
2022/09/29 09:06:14;;;;;;;28.53;21.93;;;;;;;;;;4986279;28;20600;-43
2022/09/29 09:08:47;;;;;;;32.00;22.47;;;;;;;;;;4984875;28;20172;-42
2022/09/29 09:11:32;;;;;;;33.67;23.40;;;;;;;;;;4983988;28;20189;-42
2022/09/29 09:14:17;;;;;;;28.77;20.43;;;;;;;;;;4983078;28;20708;-42
2022/09/29 09:16:43;;;;;;;25.33;19.87;;;;;;;;;;4989658;28;20178;-43
2022/09/29 09:19:12;;;;;;;24.63;19.50;;;;;;;;;;4987131;28;20188;-43
2022/09/29 09:21:41;;;;;;;25.93;18.80;;;;;;;;;;4986518;28;20168;-43
2022/09/29 09:24:26;;;;;;;29.33;19.80;;;;;;;;;;4988889;28;20169;-42
2022/09/29 09:26:52;;;;;;;29.67;19.50;;;;;;;;;;4989106;28;20318;-42
2022/09/29 09:29:34;;;;;;;28.17;21.77;;;;;;;;;;4991137;28;20181;-41
2022/09/29 09:32:06;;;;;;;28.27;20.77;;;;;;;;;;4984255;28;20963;-41
2022/09/29 09:34:32;;;;;;;28.07;20.23;;;;;;;;;;4985470;28;20544;-42
2022/09/29 09:37:10;;;;;;;26.00;19.70;;;;;;;;;;4989622;28;20165;-42
2022/09/29 09:39:39;;;;;;;28.37;20.70;;;;;;;;;;4989542;28;20674;-42
2022/09/29 09:42:13;;;;;;;27.83;21.63;;;;;;;;;;4989184;28;20609;-42
2022/09/29 09:44:41;;;;;;;26.67;19.83;;;;;;;;;;4989564;28;20178;-43
2022/09/29 09:47:10;;;;;;;24.17;17.47;;;;;;;;;;4987650;28;20178;-43
2022/09/29 09:49:40;;;;;;;20.10;13.37;;;;;;;;;;4988648;28;20170;-42
2022/09/29 09:52:08;;;;;;;19.23;15.00;;;;;;;;;;4993696;28;20191;-42
2022/09/29 09:54:41;;;;;;;20.57;14.13;;;;;;;;;;4990075;28;20177;-43
2022/09/29 09:57:36;;;;;;;25.07;16.43;;;;;;;;;;4986688;28;20738;-42
2022/09/29 10:00:07;;;;;;;21.33;14.40;;;;;;;;;;4980000;28;20185;-42
2022/09/29 10:02:34;;;;;;;23.40;14.67;;;;;;;;;;4992645;28;20853;-42
2022/09/29 10:05:00;;;;;;;17.83;13.20;;;;;;;;;;4991965;28;20537;-43
2022/09/29 10:07:28;;;;;;;15.30;12.40;;;;;;;;;;4985199;28;20181;-43
2022/09/29 10:09:55;;;;;;;20.20;14.17;;;;;;;;;;4982632;28;20177;-42
2022/09/29 10:12:23;;;;;;;19.97;14.10;;;;;;;;;;4984429;28;20177;-43
2022/09/29 10:15:00;;;;;;;23.17;15.53;;;;;;;;;;4985971;28;20624;-43
2022/09/29 10:17:30;;;;;;;22.20;13.57;;;;;;;;;;4984352;28;20434;-42
2022/09/29 10:20:00;;;;;;;17.90;12.87;;;;;;;;;;4982719;28;20569;-41
2022/09/29 10:22:28;;;;;;;18.20;12.33;;;;;;;;;;4982967;28;20244;-43
2022/09/29 10:25:14;;;;;;;16.43;11.10;;;;;;;;;;4984837;28;20641;-43
2022/09/29 10:27:42;;;;;;;21.33;14.00;;;;;;;;;;4985559;28;20613;-43
2022/09/29 10:30:43;;;;;;;18.40;13.13;;;;;;;;;;4980999;28;20188;-43
2022/09/29 10:33:13;;;;;;;20.43;13.17;;;;;;;;;;4984795;28;20176;-42
2022/09/29 10:35:40;;;;;;;22.50;13.50;;;;;;;;;;4986893;28;20196;-41
2022/09/29 10:38:17;;;;;;;17.00;11.77;;;;;;;;;;4987036;28;20286;-42
2022/09/29 10:41:03;;;;;;;17.37;11.87;;;;;;;;;;4989934;28;20180;-42
2022/09/29 10:43:36;;;;;;;15.93;10.27;;;;;;;;;;4988609;28;20314;-42
2022/09/29 10:46:05;;;;;;;17.47;11.57;;;;;;;;;;4984706;28;20220;-43
2022/09/29 10:48:31;;;;;;;15.20;7.00;;;;;;;;;;5018475;28;20722;-41
2022/09/29 10:51:02;;;;;;;12.47;7.10;;;;;;;;;;4988681;28;20177;-43
2022/09/29 10:53:30;;;;;;;12.73;6.67;;;;;;;;;;4989272;28;20174;-43
2022/09/29 10:55:58;;;;;;;9.03;5.67;;;;;;;;;;4987661;28;20455;-42
2022/09/29 10:58:28;;;;;;;13.43;5.30;;;;;;;;;;4982403;28;20201;-43
2022/09/29 11:01:06;;;;;;;7.83;3.80;;;;;;;;;;4985319;28;20311;-42
2022/09/29 11:03:34;;;;;;;8.17;3.37;;;;;;;;;;4991087;28;20183;-43
2022/09/29 11:06:13;;;;;;;9.20;4.20;;;;;;;;;;4990340;28;20218;-42
2022/09/29 11:09:00;;;;;;;7.87;3.40;;;;;;;;;;4985074;28;20985;-43
2022/09/29 11:11:26;;;;;;;5.80;3.40;;;;;;;;;;4987226;28;20263;-43
2022/09/29 11:13:54;;;;;;;8.67;2.97;;;;;;;;;;4987988;28;20185;-42
2022/09/29 11:16:24;;;;;;;5.90;3.50;;;;;;;;;;5004945;28;20757;-42
2022/09/29 11:18:52;;;;;;;6.17;2.80;;;;;;;;;;4988270;28;20234;-42
2022/09/29 11:21:21;;;;;;;8.90;3.00;;;;;;;;;;4985366;28;20181;-42
2022/09/29 11:23:54;;;;;;;6.43;2.70;;;;;;;;;;4984827;28;20747;-42
2022/09/29 11:26:45;;;;;;;5.80;2.40;;;;;;;;;;4987400;28;20448;-45
2022/09/29 11:29:29;;;;;;;7.00;2.43;;;;;;;;;;4988843;28;20196;-42
2022/09/29 11:32:04;;;;;;;9.83;3.07;;;;;;;;;;4988605;28;20188;-43
2022/09/29 11:34:49;;;;;;;6.47;2.50;;;;;;;;;;4986885;28;20176;-42
2022/09/29 11:37:27;;;;;;;12.53;3.63;;;;;;;;;;4983308;28;21041;-43
2022/09/29 11:39:56;;;;;;;6.70;3.00;;;;;;;;;;4985878;28;20196;-43
2022/09/29 11:42:22;;;;;;;7.97;3.20;;;;;;;;;;4990835;28;20260;-43
2022/09/29 11:44:57;;;;;;;5.93;2.50;;;;;;;;;;4988863;28;20272;-43
2022/09/29 11:47:27;;;;;;;6.23;2.60;;;;;;;;;;4984908;28;20185;-42
2022/09/29 11:49:55;;;;;;;8.23;3.07;;;;;;;;;;4987220;28;20277;-45
2022/09/29 11:52:33;;;;;;;7.97;2.33;;;;;;;;;;4985177;28;20212;-43
2022/09/29 11:54:59;;;;;;;6.07;2.30;;;;;;;;;;4988675;28;20390;-43
2022/09/29 11:57:34;;;;;;;6.40;2.10;;;;;;;;;;4988862;28;20311;-43
2022/09/29 12:00:07;;;;;;;6.33;2.30;;;;;;;;;;4985634;28;20204;-43
2022/09/29 12:02:41;;;;;;;5.70;2.40;;;;;;;;;;4979023;28;20204;-43
2022/09/29 12:05:08;;;;;;;6.00;2.30;;;;;;;;;;4980148;28;20176;-43
2022/09/29 12:08:12;;;;;;;5.97;2.10;;;;;;;;;;4985491;28;20185;-43
2022/09/29 12:10:45;;;;;;;5.77;1.97;;;;;;;;;;5001254;28;20954;-42
2022/09/29 12:13:23;;;;;;;7.33;2.57;;;;;;;;;;5000140;28;21058;-43
2022/09/29 12:15:55;;;;;;;6.23;2.40;;;;;;;;;;4990839;28;20375;-43
2022/09/29 12:18:34;;;;;;;5.10;2.20;;;;;;;;;;4987664;28;20204;-43
2022/09/29 12:21:01;;;;;;;8.47;3.00;;;;;;;;;;4989189;28;20235;-43
2022/09/29 12:23:29;;;;;;;7.03;2.20;;;;;;;;;;4986807;28;20200;-43
2022/09/29 12:26:13;;;;;;;9.83;2.63;;;;;;;;;;4985096;28;20780;-42
2022/09/29 12:28:40;;;;;;;7.50;2.50;;;;;;;;;;4987283;28;20734;-43
2022/09/29 12:31:10;;;;;;;6.60;2.50;;;;;;;;;;4988124;28;20554;-42
2022/09/29 12:33:55;;;;;;;7.13;2.10;;;;;;;;;;4987121;28;20540;-43
2022/09/29 12:39:12;;;;;;;4.60;2.13;;;;;;;;;;4986303;28;20787;-43
2022/09/29 12:41:41;;;;;;;5.70;2.10;;;;;;;;;;4987870;28;20173;-43
2022/09/29 12:44:14;;;;;;;5.47;1.93;;;;;;;;;;4985836;28;20596;-41
2022/09/29 12:46:55;;;;;;;4.57;1.73;;;;;;;;;;4984274;28;21035;-42
2022/09/29 12:49:25;;;;;;;5.83;1.97;;;;;;;;;;4987471;28;20533;-43
2022/09/29 12:51:51;;;;;;;3.87;1.60;;;;;;;;;;4988887;28;20188;-42
2022/09/29 12:54:19;;;;;;;8.03;1.70;;;;;;;;;;4986453;28;20705;-43
2022/09/29 12:56:45;;;;;;;7.60;1.80;;;;;;;;;;4984008;28;20295;-43
2022/09/29 12:59:12;;;;;;;5.63;1.27;;;;;;;;;;4988681;28;20232;-43
2022/09/29 13:01:38;;;;;;;5.70;1.60;;;;;;;;;;4990033;28;20731;-43
2022/09/29 13:04:23;;;;;;;4.60;1.03;;;;;;;;;;4992982;28;20207;-42
2022/09/29 13:06:55;;;;;;;3.00;1.17;;;;;;;;;;4990487;28;20584;-42
2022/09/29 13:09:39;;;;;;;5.83;1.40;;;;;;;;;;4985716;28;20180;-41
2022/09/29 13:12:32;;;;;;;3.37;1.10;;;;;;;;;;4986024;28;20631;-42
2022/09/29 13:15:10;;;;;;;2.37;1.17;;;;;;;;;;4994206;28;20233;-42
2022/09/29 13:17:54;;;;;;;6.20;1.20;;;;;;;;;;4986695;28;20250;-42
2022/09/29 13:20:23;;;;;;;3.23;1.00;;;;;;;;;;4984957;28;20177;-42
2022/09/29 13:22:50;;;;;;;3.40;1.10;;;;;;;;;;4988841;28;20707;-42
2022/09/29 13:25:27;;;;;;;3.57;1.40;;;;;;;;;;4990697;28;20543;-42
2022/09/29 13:27:54;;;;;;;2.20;1.00;;;;;;;;;;4988404;28;20311;-42
2022/09/29 13:30:22;;;;;;;2.93;1.00;;;;;;;;;;4985346;28;20280;-42
2022/09/29 13:32:55;;;;;;;4.97;1.23;;;;;;;;;;4984069;28;20173;-42
2022/09/29 13:35:26;;;;;;;2.43;0.90;;;;;;;;;;4985921;28;20709;-42
2022/09/29 13:37:54;;;;;;;2.40;0.90;;;;;;;;;;4987717;28;20668;-42
2022/09/29 13:40:25;;;;;;;3.47;1.10;;;;;;;;;;4984082;28;21221;-43
2022/09/29 13:42:54;;;;;;;3.93;1.27;;;;;;;;;;4984657;28;20807;-43
2022/09/29 13:45:26;;;;;;;4.77;0.90;;;;;;;;;;4987176;28;20181;-44
2022/09/29 13:47:54;;;;;;;4.47;0.97;;;;;;;;;;4990703;28;20169;-44
2022/09/29 13:50:39;;;;;;;2.87;0.80;;;;;;;;;;4989632;28;20642;-44
2022/09/29 13:53:27;;;;;;;4.00;0.90;;;;;;;;;;4986862;28;20241;-44
2022/09/29 13:56:02;;;;;;;1.90;0.90;;;;;;;;;;4987142;28;20666;-43
2022/09/29 13:58:29;;;;;;;2.53;0.90;;;;;;;;;;4986056;28;20254;-40
2022/09/29 14:00:58;;;;;;;3.10;0.80;;;;;;;;;;4983363;28;21216;-45
2022/09/29 14:03:33;;;;;;;2.20;0.90;;;;;;;;;;4985146;28;20697;-42
2022/09/29 14:06:06;;;;;;;2.77;0.80;;;;;;;;;;4982445;28;20176;-42
2022/09/29 14:08:38;;;;;;;2.07;0.70;;;;;;;;;;4985768;28;20602;-42
2022/09/29 14:11:14;;;;;;;4.37;1.00;;;;;;;;;;4987233;28;20763;-42
2022/09/29 14:13:40;;;;;;;4.37;1.03;;;;;;;;;;4985302;28;20230;-42
2022/09/29 14:16:45;;;;;;;2.40;0.90;;;;;;;;;;4982043;28;20753;-42
2022/09/29 14:19:33;;;;;;;3.90;1.00;;;;;;;;;;5020267;28;21426;-43
2022/09/29 14:22:00;;;;;;;1.47;0.73;;;;;;;;;;5022496;28;20454;-43
2022/09/29 14:24:41;;;;;;;4.30;1.00;;;;;;;;;;5002846;28;20192;-44
2022/09/29 14:27:29;;;;;;;3.00;0.80;;;;;;;;;;4981220;28;20191;-43
2022/09/29 14:30:15;;;;;;;2.27;1.00;;;;;;;;;;4976380;28;21489;-44
2022/09/29 14:32:55;;;;;;;2.47;0.90;;;;;;;;;;4980868;28;20183;-43
2022/09/29 14:35:21;;;;;;;3.77;0.93;;;;;;;;;;4986438;28;20945;-44
2022/09/29 14:37:50;;;;;;;4.90;0.90;;;;;;;;;;4981720;28;21043;-43
2022/09/29 14:40:27;;;;;;;2.00;0.87;;;;;;;;;;4979899;28;20771;-43
2022/09/29 14:43:05;;;;;;;2.63;0.73;;;;;;;;;;4988885;28;20168;-44
2022/09/29 14:54:23;;;;;;;4.37;0.80;;;;;;;;;;4981877;28;20712;-41
2022/09/29 14:56:50;;;;;;;4.70;1.10;;;;;;;;;;4985036;28;20169;-42